createdAt,value
2023-02-19T00:00:20.490Z,2.60
2023-02-19T00:01:28.910Z,4.75
2023-02-19T00:02:31.475Z,4.35
2023-02-19T00:03:33.860Z,6.15
2023-02-19T00:04:36.260Z,3.95
2023-02-19T00:05:38.743Z,2.63
2023-02-19T00:06:42.132Z,4.30
2023-02-19T00:07:44.511Z,2.67
2023-02-19T00:08:46.969Z,4.35
2023-02-19T00:09:50.049Z,2.75
2023-02-19T00:10:53.420Z,4.00
2023-02-19T00:11:55.672Z,4.22
2023-02-19T00:12:58.014Z,3.75
2023-02-19T00:14:02.266Z,4.38
2023-02-19T00:15:05.006Z,3.38
2023-02-19T00:16:11.011Z,4.53
2023-02-19T00:17:13.561Z,3.45
2023-02-19T00:18:16.131Z,3.72
2023-02-19T00:19:20.620Z,4.30
2023-02-19T00:20:23.080Z,3.30
2023-02-19T00:21:26.848Z,4.10
2023-02-19T00:22:29.182Z,3.80
2023-02-19T00:23:32.279Z,3.53
2023-02-19T00:24:34.693Z,3.95
2023-02-19T00:25:38.286Z,3.58
2023-02-19T00:26:41.611Z,3.90
2023-02-19T00:27:44.088Z,4.20
2023-02-19T00:28:51.789Z,4.45
2023-02-19T00:29:54.456Z,6.38
2023-02-19T00:30:56.958Z,4.10
2023-02-19T00:31:59.609Z,4.80
2023-02-19T00:33:02.102Z,4.43
2023-02-19T00:34:06.343Z,4.63
2023-02-19T00:36:11.025Z,3.17
2023-02-19T00:37:13.374Z,4.35
2023-02-19T00:38:17.274Z,3.55
2023-02-19T00:39:21.567Z,4.07
2023-02-19T00:40:26.232Z,3.25
2023-02-19T00:41:30.688Z,3.00
2023-02-19T00:42:33.116Z,3.75
2023-02-19T00:43:36.225Z,2.75
2023-02-19T00:44:38.550Z,3.72
2023-02-19T00:45:41.033Z,3.13
2023-02-19T00:46:46.139Z,3.92
2023-02-19T00:47:48.618Z,4.15
2023-02-19T00:48:52.671Z,6.78
2023-02-19T00:49:55.504Z,5.72
2023-02-19T00:50:57.993Z,4.63
2023-02-19T00:52:00.358Z,6.07
2023-02-19T00:53:02.891Z,6.13
2023-02-19T00:54:06.495Z,6.53
2023-02-19T00:55:08.975Z,8.77
2023-02-19T00:56:12.178Z,8.60
2023-02-19T00:57:14.539Z,9.23
2023-02-19T00:58:17.018Z,9.35
2023-02-19T00:59:19.460Z,8.77
2023-02-19T01:00:22.001Z,10.35
2023-02-19T01:01:25.018Z,9.85
2023-02-19T01:02:27.680Z,8.95
2023-02-19T01:03:31.441Z,12.10
2023-02-19T01:04:33.826Z,9.50
2023-02-19T01:05:37.780Z,9.48
2023-02-19T01:06:40.314Z,9.48
2023-02-19T01:07:42.758Z,10.82
2023-02-19T01:08:46.025Z,8.27
2023-02-19T01:09:48.599Z,8.95
2023-02-19T01:10:51.375Z,8.88
2023-02-19T01:11:53.714Z,8.30
2023-02-19T01:12:56.136Z,6.95
2023-02-19T01:14:00.759Z,8.73
2023-02-19T01:15:03.678Z,9.57
2023-02-19T01:16:09.546Z,8.93
2023-02-19T01:17:12.948Z,9.55
2023-02-19T01:18:15.665Z,9.00
2023-02-19T01:19:18.100Z,10.38
2023-02-19T01:20:20.989Z,9.60
2023-02-19T01:21:25.636Z,10.25
2023-02-19T01:22:28.325Z,8.90
2023-02-19T01:23:31.125Z,9.57
2023-02-19T01:24:33.462Z,10.50
2023-02-19T01:25:39.285Z,9.30
2023-02-19T01:26:41.759Z,10.50
2023-02-19T01:27:44.416Z,7.95
2023-02-19T01:28:48.684Z,9.35
2023-02-19T01:29:51.317Z,10.07
2023-02-19T01:30:53.731Z,7.18
2023-02-19T01:31:56.265Z,6.75
2023-02-19T01:32:58.650Z,6.55
2023-02-19T01:34:03.321Z,8.40
2023-02-19T01:35:07.152Z,6.63
2023-02-19T01:36:10.054Z,9.75
2023-02-19T01:37:12.728Z,9.75
2023-02-19T01:38:15.509Z,9.35
2023-02-19T01:39:17.978Z,8.50
2023-02-19T01:40:20.519Z,8.30
2023-02-19T01:41:25.584Z,8.52
2023-02-19T01:42:28.232Z,9.15
2023-02-19T01:43:33.409Z,7.80
2023-02-19T01:44:35.664Z,9.93
2023-02-19T01:45:43.451Z,8.13
2023-02-19T01:46:48.628Z,8.00
2023-02-19T01:47:56.921Z,10.05
2023-02-19T01:49:04.820Z,7.35
2023-02-19T01:50:07.208Z,6.20
2023-02-19T01:51:15.720Z,6.82
2023-02-19T01:52:30.808Z,5.80
2023-02-19T01:53:38.647Z,9.10
2023-02-19T01:54:43.091Z,8.02
2023-02-19T01:55:50.790Z,7.78
2023-02-19T01:56:54.615Z,7.10
2023-02-19T01:59:01.981Z,10.23
2023-02-19T02:00:10.318Z,8.13
2023-02-19T02:01:16.370Z,10.23
2023-02-19T02:02:19.005Z,10.25
2023-02-19T02:03:21.783Z,9.75
2023-02-19T02:04:24.370Z,8.90
2023-02-19T02:05:47.750Z,7.38
2023-02-19T02:06:56.042Z,7.03
2023-02-19T02:08:18.167Z,8.85
2023-02-19T02:09:42.318Z,6.97
2023-02-19T02:10:45.193Z,7.22
2023-02-19T02:11:52.654Z,6.53
2023-02-19T02:12:59.377Z,5.18
2023-02-19T02:14:03.276Z,8.32
2023-02-19T02:15:06.263Z,9.93
2023-02-19T02:16:11.207Z,7.93
2023-02-19T02:17:34.525Z,9.07
2023-02-19T02:19:14.630Z,6.47
2023-02-19T02:20:53.753Z,7.63
2023-02-19T02:22:02.405Z,7.43
2023-02-19T02:23:47.726Z,6.97
2023-02-19T02:25:44.489Z,9.80
2023-02-19T02:26:55.708Z,6.75
2023-02-19T02:28:13.186Z,9.95
2023-02-19T02:29:55.328Z,7.55
2023-02-19T02:31:07.401Z,8.82
2023-02-19T02:32:40.221Z,9.15
2023-02-19T02:33:57.688Z,8.75
2023-02-19T02:35:05.821Z,8.23
2023-02-19T02:36:11.077Z,9.05
2023-02-19T02:37:16.848Z,8.02
2023-02-19T02:38:24.789Z,9.02
2023-02-19T02:39:32.640Z,8.57
2023-02-19T02:40:41.078Z,6.55
2023-02-19T02:42:14.190Z,7.53
2023-02-19T02:43:18.959Z,7.82
2023-02-19T02:44:21.353Z,7.95
2023-02-19T02:45:35.791Z,7.32
2023-02-19T02:46:46.204Z,6.30
2023-02-19T02:47:57.251Z,7.95
2023-02-19T02:49:05.836Z,5.70
2023-02-19T02:50:24.388Z,6.75
2023-02-19T02:51:32.208Z,8.05
2023-02-19T02:53:11.876Z,7.05
2023-02-19T02:54:39.134Z,5.80
2023-02-19T02:55:48.739Z,6.47
2023-02-19T02:56:54.810Z,7.65
2023-02-19T02:57:57.357Z,6.93
2023-02-19T02:59:02.722Z,7.43
2023-02-19T03:00:06.701Z,5.95
2023-02-19T03:01:30.741Z,8.65
2023-02-19T03:02:33.508Z,7.03
2023-02-19T03:03:39.731Z,5.63
2023-02-19T03:05:23.082Z,10.18
2023-02-19T03:06:29.958Z,6.55
2023-02-19T03:08:13.099Z,6.65
2023-02-19T03:09:22.517Z,5.60
2023-02-19T03:10:34.441Z,6.35
2023-02-19T03:12:02.272Z,5.65
2023-02-19T03:13:26.647Z,7.65
2023-02-19T03:15:13.355Z,4.47
2023-02-19T03:16:42.668Z,7.00
2023-02-19T03:18:09.422Z,3.78
2023-02-19T03:19:21.895Z,6.07
2023-02-19T03:20:28.236Z,5.20
2023-02-19T03:21:35.642Z,3.90
2023-02-19T03:22:40.574Z,5.55
2023-02-19T03:25:30.697Z,5.47
2023-02-19T03:26:33.983Z,3.80
2023-02-19T03:27:39.796Z,5.18
2023-02-19T03:29:04.168Z,5.22
2023-02-19T03:30:17.431Z,3.33
2023-02-19T03:31:24.196Z,6.53
2023-02-19T03:33:19.519Z,6.85
2023-02-19T03:34:47.152Z,5.82
2023-02-19T03:36:10.830Z,3.65
2023-02-19T03:37:25.414Z,5.82
2023-02-19T03:38:39.712Z,4.10
2023-02-19T03:39:45.477Z,5.82
2023-02-19T03:41:02.646Z,5.88
2023-02-19T03:42:21.525Z,4.47
2023-02-19T03:43:49.661Z,4.88
2023-02-19T03:45:16.948Z,5.78
2023-02-19T03:46:32.623Z,3.95
2023-02-19T03:48:14.819Z,3.70
2023-02-19T03:50:50.187Z,4.03
2023-02-19T03:52:17.712Z,5.00
2023-02-19T03:53:52.520Z,4.85
2023-02-19T03:55:32.544Z,4.38
2023-02-19T03:56:43.950Z,3.30
2023-02-19T03:57:54.117Z,4.13
2023-02-19T04:00:17.229Z,6.40
2023-02-19T04:01:43.180Z,5.13
2023-02-19T04:02:59.004Z,4.05
2023-02-19T04:04:04.589Z,2.75
2023-02-19T04:05:14.698Z,3.78
2023-02-19T04:06:28.797Z,4.07
2023-02-19T04:07:36.934Z,3.80
2023-02-19T04:08:43.063Z,3.28
2023-02-19T04:09:48.595Z,4.10
2023-02-19T04:10:55.547Z,2.67
2023-02-19T04:12:02.011Z,3.58
2023-02-19T04:13:11.841Z,3.55
2023-02-19T04:14:29.235Z,3.00
2023-02-19T04:15:34.491Z,5.68
2023-02-19T04:16:41.800Z,3.15
2023-02-19T04:17:48.109Z,2.85
2023-02-19T04:18:54.872Z,3.67
2023-02-19T04:20:00.199Z,3.65
2023-02-19T04:21:03.530Z,3.70
2023-02-19T04:22:06.886Z,3.75
2023-02-19T04:23:09.945Z,4.65
2023-02-19T04:24:22.123Z,3.13
2023-02-19T04:25:27.449Z,3.38
2023-02-19T04:26:31.499Z,4.18
2023-02-19T04:28:39.391Z,5.07
2023-02-19T04:29:42.046Z,4.60
2023-02-19T04:30:45.047Z,5.43
2023-02-19T04:31:47.704Z,4.90
2023-02-19T04:32:50.066Z,4.82
2023-02-19T04:33:52.704Z,4.07
2023-02-19T04:34:55.082Z,4.22
2023-02-19T04:35:57.389Z,4.72
2023-02-19T04:37:00.096Z,3.63
2023-02-19T04:38:02.614Z,4.57
2023-02-19T04:39:05.211Z,5.03
2023-02-19T04:40:08.244Z,3.30
2023-02-19T04:41:11.154Z,4.13
2023-02-19T04:42:13.766Z,3.60
2023-02-19T04:43:16.203Z,4.45
2023-02-19T04:44:18.452Z,4.40
2023-02-19T04:45:20.778Z,4.32
2023-02-19T04:46:23.248Z,5.28
2023-02-19T04:47:26.141Z,4.32
2023-02-19T04:48:29.232Z,5.28
2023-02-19T04:49:31.682Z,4.07
2023-02-19T04:50:34.198Z,5.03
2023-02-19T04:51:37.165Z,3.45
2023-02-19T04:52:39.635Z,7.03
2023-02-19T04:53:42.968Z,6.60
2023-02-19T04:54:45.613Z,8.02
2023-02-19T04:55:48.665Z,8.93
2023-02-19T04:56:51.354Z,5.97
2023-02-19T04:57:53.687Z,7.65
2023-02-19T04:58:56.297Z,6.45
2023-02-19T04:59:58.799Z,7.82
2023-02-19T05:01:01.306Z,6.55
2023-02-19T05:02:04.307Z,4.22
2023-02-19T05:03:06.833Z,4.55
2023-02-19T05:04:09.345Z,5.13
2023-02-19T05:05:11.862Z,4.43
2023-02-19T05:06:14.584Z,4.78
2023-02-19T05:07:16.932Z,4.53
2023-02-19T05:08:19.693Z,4.00
2023-02-19T05:09:22.084Z,4.45
2023-02-19T05:10:24.722Z,6.25
2023-02-19T05:11:27.174Z,4.57
2023-02-19T05:12:31.222Z,4.95
2023-02-19T05:13:34.120Z,5.15
2023-02-19T05:14:36.538Z,4.28
2023-02-19T05:15:55.544Z,4.50
2023-02-19T05:16:58.176Z,4.30
2023-02-19T05:18:00.514Z,4.38
2023-02-19T05:19:02.945Z,4.10
2023-02-19T05:20:05.774Z,5.22
2023-02-19T05:21:11.798Z,5.25
2023-02-19T05:22:14.299Z,4.25
2023-02-19T05:23:16.650Z,4.13
2023-02-19T05:24:19.712Z,6.38
2023-02-19T05:25:22.184Z,7.95
2023-02-19T05:26:24.477Z,6.47
2023-02-19T05:27:26.806Z,8.85
2023-02-19T05:28:29.369Z,12.43
2023-02-19T05:29:32.648Z,13.48
2023-02-19T05:30:35.863Z,12.85
2023-02-19T05:31:38.485Z,11.55
2023-02-19T05:32:40.958Z,9.07
2023-02-19T05:33:44.388Z,9.50
2023-02-19T05:34:47.006Z,7.78
2023-02-19T05:35:52.545Z,7.78
2023-02-19T05:36:55.661Z,7.10
2023-02-19T05:37:58.123Z,6.97
2023-02-19T05:39:00.937Z,6.93
2023-02-19T05:40:03.553Z,5.70
2023-02-19T05:41:17.665Z,5.93
2023-02-19T05:42:20.054Z,6.90
2023-02-19T05:43:22.396Z,5.28
2023-02-19T05:44:25.187Z,5.72
2023-02-19T05:45:27.618Z,6.82
2023-02-19T05:46:31.030Z,9.75
2023-02-19T05:47:33.556Z,7.28
2023-02-19T05:48:36.246Z,8.48
2023-02-19T05:49:38.776Z,5.90
2023-02-19T05:50:41.381Z,9.07
2023-02-19T05:51:52.299Z,7.30
2023-02-19T05:52:54.722Z,8.43
2023-02-19T05:53:57.886Z,8.43
2023-02-19T05:55:00.208Z,8.07
2023-02-19T05:56:02.918Z,7.75
2023-02-19T05:57:05.281Z,5.38
2023-02-19T05:58:07.996Z,8.40
2023-02-19T05:59:19.541Z,11.68
2023-02-19T06:00:22.813Z,8.35
2023-02-19T06:01:27.654Z,11.40
2023-02-19T06:02:30.182Z,14.63
2023-02-19T06:03:32.601Z,10.88
2023-02-19T06:04:35.081Z,10.18
2023-02-19T06:05:38.234Z,10.80
2023-02-19T06:06:41.759Z,12.38
2023-02-19T06:07:44.316Z,8.90
2023-02-19T06:08:48.360Z,8.68
2023-02-19T06:10:54.224Z,6.78
2023-02-19T06:11:57.278Z,6.07
2023-02-19T06:12:59.667Z,5.68
2023-02-19T06:14:02.427Z,8.68
2023-02-19T06:15:06.435Z,7.88
2023-02-19T06:16:09.500Z,6.18
2023-02-19T06:17:12.088Z,6.20
2023-02-19T06:18:14.725Z,6.10
2023-02-19T06:19:17.413Z,9.32
2023-02-19T06:20:19.914Z,10.55
2023-02-19T06:21:22.376Z,8.00
2023-02-19T06:22:24.963Z,8.48
2023-02-19T06:23:29.266Z,9.27
2023-02-19T06:24:32.071Z,7.72
2023-02-19T06:25:34.424Z,5.53
2023-02-19T06:26:37.408Z,6.45
2023-02-19T06:27:39.967Z,6.07
2023-02-19T06:28:42.715Z,7.57
2023-02-19T06:29:48.360Z,6.05
2023-02-19T06:30:54.601Z,7.70
2023-02-19T06:31:57.866Z,6.07
2023-02-19T06:33:00.390Z,6.85
2023-02-19T06:34:06.139Z,6.03
2023-02-19T06:35:11.760Z,5.30
2023-02-19T06:36:16.770Z,6.25
2023-02-19T06:37:19.421Z,5.00
2023-02-19T06:38:22.402Z,5.55
2023-02-19T06:39:25.697Z,5.28
2023-02-19T06:40:28.186Z,4.85
2023-02-19T06:41:31.049Z,3.53
2023-02-19T06:42:33.608Z,5.25
2023-02-19T06:43:36.520Z,3.67
2023-02-19T06:44:39.124Z,8.02
2023-02-19T06:45:41.650Z,4.72
2023-02-19T06:46:44.217Z,3.42
2023-02-19T06:47:46.727Z,5.18
2023-02-19T06:48:49.317Z,3.58
2023-02-19T06:49:51.733Z,3.20
2023-02-19T06:50:55.040Z,3.85
2023-02-19T06:51:57.489Z,4.22
2023-02-19T06:53:00.017Z,3.40
2023-02-19T06:54:02.698Z,5.20
2023-02-19T06:55:05.461Z,3.47
2023-02-19T06:56:21.629Z,4.22
2023-02-19T06:57:24.829Z,4.85
2023-02-19T06:58:27.982Z,4.25
2023-02-19T06:59:30.680Z,12.10
2023-02-19T07:00:33.744Z,11.90
2023-02-19T07:01:37.566Z,27.13
2023-02-19T07:02:40.077Z,21.77
2023-02-19T07:03:42.709Z,17.77
2023-02-19T07:04:45.258Z,18.13
2023-02-19T07:05:48.139Z,17.65
2023-02-19T07:06:50.754Z,16.27
2023-02-19T07:07:53.436Z,9.52
2023-02-19T07:08:57.562Z,10.85
2023-02-19T07:10:00.113Z,13.60
2023-02-19T07:11:02.693Z,19.02
2023-02-19T07:12:05.603Z,20.48
2023-02-19T07:13:07.948Z,17.60
2023-02-19T07:14:15.807Z,15.20
2023-02-19T07:15:18.480Z,12.68
2023-02-19T07:16:21.243Z,24.00
2023-02-19T07:17:23.892Z,30.23
2023-02-19T07:18:28.590Z,30.83
2023-02-19T07:19:31.152Z,22.83
2023-02-19T07:20:33.850Z,18.88
2023-02-19T07:21:38.037Z,37.17
2023-02-19T07:22:40.442Z,44.75
2023-02-19T07:23:44.524Z,21.25
2023-02-19T07:24:48.038Z,16.10
2023-02-19T07:25:50.568Z,14.65
2023-02-19T07:26:53.348Z,12.02
2023-02-19T07:27:55.946Z,9.95
2023-02-19T07:28:58.448Z,10.52
2023-02-19T07:30:03.679Z,9.70
2023-02-19T07:31:06.137Z,7.88
2023-02-19T07:32:08.802Z,7.32
2023-02-19T07:33:13.241Z,5.53
2023-02-19T07:34:16.262Z,5.75
2023-02-19T07:35:18.583Z,7.80
2023-02-19T07:36:23.086Z,5.63
2023-02-19T07:37:26.974Z,6.75
2023-02-19T07:38:29.703Z,8.25
2023-02-19T07:39:32.241Z,7.30
2023-02-19T07:40:35.646Z,8.60
2023-02-19T07:41:38.269Z,9.35
2023-02-19T07:42:42.456Z,8.13
2023-02-19T07:43:44.807Z,14.52
2023-02-19T07:44:47.269Z,24.38
2023-02-19T07:45:49.881Z,28.60
2023-02-19T07:46:52.328Z,26.40
2023-02-19T07:47:54.724Z,22.20
2023-02-19T07:48:57.839Z,17.08
2023-02-19T07:50:00.443Z,12.38
2023-02-19T07:51:04.500Z,10.27
2023-02-19T07:52:07.008Z,12.85
2023-02-19T07:53:09.586Z,10.98
2023-02-19T07:54:12.092Z,7.97
2023-02-19T07:55:14.594Z,8.48
2023-02-19T07:56:18.197Z,6.97
2023-02-19T07:57:23.518Z,7.07
2023-02-19T07:58:26.607Z,7.78
2023-02-19T07:59:29.296Z,6.55
2023-02-19T08:00:31.763Z,7.55
2023-02-19T08:01:54.699Z,8.65
2023-02-19T08:03:00.402Z,7.53
2023-02-19T08:04:03.062Z,5.68
2023-02-19T08:05:06.740Z,3.58
2023-02-19T08:06:11.399Z,4.63
2023-02-19T08:07:13.816Z,5.35
2023-02-19T08:08:17.282Z,5.38
2023-02-19T08:09:19.737Z,7.65
2023-02-19T08:10:41.069Z,4.30
2023-02-19T08:12:02.094Z,5.05
2023-02-19T08:13:19.948Z,3.97
2023-02-19T08:14:27.997Z,6.97
2023-02-19T08:15:30.623Z,5.53
2023-02-19T08:16:42.537Z,4.60
2023-02-19T08:17:45.846Z,4.00
2023-02-19T08:18:48.771Z,8.20
2023-02-19T08:19:51.162Z,5.47
2023-02-19T08:20:55.260Z,7.85
2023-02-19T08:23:00.329Z,4.60
2023-02-19T08:24:02.793Z,5.90
2023-02-19T08:25:05.528Z,6.50
2023-02-19T08:26:08.788Z,6.68
2023-02-19T08:27:14.624Z,5.20
2023-02-19T08:28:21.319Z,5.20
2023-02-19T08:29:24.098Z,3.03
2023-02-19T08:30:28.268Z,4.72
2023-02-19T08:31:31.042Z,3.25
2023-02-19T08:32:33.540Z,3.70
2023-02-19T08:33:36.137Z,3.00
2023-02-19T08:34:42.913Z,3.25
2023-02-19T08:35:45.603Z,5.38
2023-02-19T08:36:48.126Z,4.13
2023-02-19T08:37:51.009Z,3.53
2023-02-19T08:38:53.564Z,3.83
2023-02-19T08:39:57.861Z,4.30
2023-02-19T08:41:00.339Z,6.07
2023-02-19T08:42:07.161Z,3.30
2023-02-19T08:43:15.826Z,3.78
2023-02-19T08:44:18.317Z,2.97
2023-02-19T08:45:20.688Z,3.17
2023-02-19T08:46:23.481Z,3.60
2023-02-19T08:47:26.012Z,4.18
2023-02-19T08:48:29.706Z,6.30
2023-02-19T08:49:32.343Z,3.58
2023-02-19T08:50:35.997Z,6.05
2023-02-19T08:51:38.407Z,3.97
2023-02-19T08:52:40.929Z,6.53
2023-02-19T08:53:43.975Z,4.40
2023-02-19T08:54:49.088Z,5.57
2023-02-19T08:55:52.639Z,3.67
2023-02-19T08:56:55.060Z,3.65
2023-02-19T08:57:57.459Z,3.25
2023-02-19T08:58:59.945Z,5.43
2023-02-19T09:00:02.316Z,6.53
2023-02-19T09:01:21.914Z,5.30
2023-02-19T09:02:27.129Z,5.72
2023-02-19T09:03:29.883Z,10.07
2023-02-19T09:04:32.585Z,8.73
2023-02-19T09:05:35.061Z,11.82
2023-02-19T09:06:39.815Z,8.80
2023-02-19T09:07:42.830Z,6.55
2023-02-19T09:08:45.280Z,6.85
2023-02-19T09:09:47.758Z,4.35
2023-02-19T09:11:04.796Z,4.82
2023-02-19T09:12:09.114Z,5.32
2023-02-19T09:13:12.384Z,3.90
2023-02-19T09:14:15.008Z,3.47
2023-02-19T09:15:18.351Z,3.35
2023-02-19T09:16:23.887Z,4.18
2023-02-19T09:17:26.590Z,3.50
2023-02-19T09:18:29.412Z,3.92
2023-02-19T09:19:31.964Z,4.03
2023-02-19T09:20:34.450Z,4.07
2023-02-19T09:21:36.953Z,4.05
2023-02-19T09:22:39.295Z,3.65
2023-02-19T09:23:41.725Z,3.05
2023-02-19T09:24:44.948Z,3.08
2023-02-19T09:25:47.686Z,4.20
2023-02-19T09:26:54.360Z,3.58
2023-02-19T09:27:57.632Z,4.18
2023-02-19T09:29:00.484Z,4.25
2023-02-19T09:30:03.792Z,4.65
2023-02-19T09:31:09.810Z,4.07
2023-02-19T09:32:12.905Z,4.75
2023-02-19T09:34:12.919Z,4.30
2023-02-19T09:35:18.332Z,3.40
2023-02-19T09:36:20.952Z,2.30
2023-02-19T09:37:28.046Z,4.90
2023-02-19T09:38:31.787Z,3.40
2023-02-19T09:39:34.930Z,3.25
2023-02-19T09:41:06.059Z,4.10
2023-02-19T09:42:22.630Z,5.72
2023-02-19T09:43:33.520Z,2.97
2023-02-19T09:44:52.031Z,2.83
2023-02-19T09:46:31.989Z,4.03
2023-02-19T09:47:35.292Z,3.10
2023-02-19T09:49:09.450Z,3.10
2023-02-19T09:52:37.162Z,3.97
2023-02-19T09:53:49.472Z,3.20
2023-02-19T09:56:00.222Z,3.28
2023-02-19T09:57:04.531Z,4.22
2023-02-19T09:58:35.135Z,5.72
2023-02-19T09:59:44.811Z,6.20
2023-02-19T10:00:49.806Z,5.15
2023-02-19T10:02:03.439Z,4.43
2023-02-19T10:03:12.973Z,3.90
2023-02-19T10:04:15.709Z,4.72
2023-02-19T10:05:20.150Z,6.32
2023-02-19T10:06:29.995Z,5.82
2023-02-19T10:07:42.287Z,5.60
2023-02-19T10:08:46.960Z,3.85
2023-02-19T10:10:15.773Z,5.85
2023-02-19T10:11:19.393Z,4.07
2023-02-19T10:12:32.080Z,7.90
2023-02-19T10:13:42.429Z,4.68
2023-02-19T10:14:53.375Z,7.15
2023-02-19T10:16:15.373Z,14.45
2023-02-19T10:17:35.025Z,12.55
2023-02-19T10:18:52.256Z,7.85
2023-02-19T10:19:57.166Z,9.10
2023-02-19T10:21:00.702Z,9.80
2023-02-19T10:22:11.827Z,9.85
2023-02-19T10:23:16.442Z,12.85
2023-02-19T10:24:23.768Z,13.57
2023-02-19T10:25:26.399Z,16.38
2023-02-19T10:26:32.000Z,12.30
2023-02-19T10:27:34.778Z,7.93
2023-02-19T10:29:08.935Z,8.50
2023-02-19T10:30:32.136Z,8.63
2023-02-19T10:31:35.269Z,6.05
2023-02-19T10:33:03.026Z,4.30
2023-02-19T10:34:17.240Z,3.17
2023-02-19T10:35:23.619Z,3.53
2023-02-19T10:36:40.014Z,5.15
2023-02-19T10:37:56.752Z,8.70
2023-02-19T10:39:10.926Z,12.75
2023-02-19T10:40:20.948Z,14.00
2023-02-19T10:41:33.408Z,19.02
2023-02-19T10:42:49.335Z,10.40
2023-02-19T10:44:21.307Z,6.40
2023-02-19T10:45:48.470Z,5.65
2023-02-19T10:46:55.376Z,10.73
2023-02-19T10:47:58.552Z,14.88
2023-02-19T10:49:07.670Z,25.58
2023-02-19T10:50:30.685Z,28.00
2023-02-19T10:51:40.363Z,15.93
2023-02-19T10:52:44.097Z,11.38
2023-02-19T10:53:49.670Z,9.38
2023-02-19T10:54:56.481Z,7.00
2023-02-19T10:56:34.546Z,9.10
2023-02-19T10:57:40.750Z,9.10
2023-02-19T10:58:48.082Z,6.90
2023-02-19T10:59:59.549Z,7.20
2023-02-19T11:01:27.115Z,4.55
2023-02-19T11:04:17.676Z,5.18
2023-02-19T11:05:23.763Z,6.30
2023-02-19T11:06:28.232Z,8.20
2023-02-19T11:07:42.023Z,6.20
2023-02-19T11:08:51.326Z,5.63
2023-02-19T11:09:54.049Z,7.22
2023-02-19T11:10:59.535Z,16.80
2023-02-19T11:12:06.132Z,13.13
2023-02-19T11:13:30.899Z,12.38
2023-02-19T11:14:35.876Z,5.97
2023-02-19T11:15:39.013Z,10.23
2023-02-19T11:17:00.289Z,7.60
2023-02-19T11:18:30.505Z,17.40
2023-02-19T11:19:37.092Z,22.67
2023-02-19T11:20:54.519Z,7.93
2023-02-19T11:22:19.536Z,9.02
2023-02-19T11:23:29.605Z,3.58
2023-02-19T11:24:41.265Z,8.10
2023-02-19T11:25:51.143Z,5.93
2023-02-19T11:26:54.814Z,13.18
2023-02-19T11:28:15.966Z,6.00
2023-02-19T11:29:26.460Z,7.30
2023-02-19T11:30:43.809Z,7.35
2023-02-19T11:31:46.916Z,6.80
2023-02-19T11:32:53.040Z,5.13
2023-02-19T11:34:10.073Z,7.20
2023-02-19T11:35:25.436Z,5.32
2023-02-19T11:36:36.490Z,7.45
2023-02-19T11:38:21.978Z,6.63
2023-02-19T11:39:41.368Z,6.53
2023-02-19T11:41:14.901Z,6.35
2023-02-19T11:42:29.235Z,7.10
2023-02-19T11:44:13.632Z,9.13
2023-02-19T11:45:49.862Z,8.15
2023-02-19T11:47:24.114Z,11.85
2023-02-19T11:48:40.542Z,7.50
2023-02-19T11:50:25.160Z,8.57
2023-02-19T11:51:31.476Z,20.05
2023-02-19T11:53:08.438Z,22.38
2023-02-19T11:54:41.074Z,17.08
2023-02-19T11:56:05.208Z,12.48
2023-02-19T11:57:37.109Z,16.60
2023-02-19T11:59:09.072Z,29.38
2023-02-19T12:00:32.801Z,20.80
2023-02-19T12:01:54.419Z,22.75
2023-02-19T12:03:13.785Z,26.38
2023-02-19T12:05:08.056Z,23.77
2023-02-19T12:06:20.833Z,18.05
2023-02-19T12:07:46.803Z,13.43
2023-02-19T12:09:03.396Z,11.10
2023-02-19T12:10:29.712Z,7.03
2023-02-19T12:11:53.810Z,9.40
2023-02-19T12:13:41.611Z,6.32
2023-02-19T12:15:10.013Z,11.15
2023-02-19T12:16:22.079Z,13.85
2023-02-19T12:17:46.259Z,8.95
2023-02-19T12:19:27.660Z,10.43
2023-02-19T12:20:49.925Z,8.25
2023-02-19T12:22:14.821Z,9.40
2023-02-19T12:23:57.354Z,17.33
2023-02-19T12:25:18.300Z,5.47
2023-02-19T12:27:09.413Z,8.60
2023-02-19T12:28:34.092Z,5.15
2023-02-19T12:30:25.686Z,4.47
2023-02-19T12:31:37.565Z,4.57
2023-02-19T12:33:01.123Z,6.30
2023-02-19T12:34:23.643Z,2.92
2023-02-19T12:35:48.584Z,4.07
2023-02-19T12:37:26.200Z,2.35
2023-02-19T12:38:43.479Z,3.72
2023-02-19T12:40:19.173Z,4.18
2023-02-19T12:41:51.380Z,3.22
2023-02-19T12:43:15.777Z,3.97
2023-02-19T12:45:11.178Z,4.85
2023-02-19T12:46:29.919Z,7.47
2023-02-19T12:47:43.077Z,1.50
2023-02-19T12:48:53.733Z,1.52
2023-02-19T12:50:08.803Z,2.13
2023-02-19T12:51:19.923Z,6.47
2023-02-19T12:52:37.030Z,4.82
2023-02-19T12:53:52.400Z,3.88
2023-02-19T12:55:02.379Z,8.18
2023-02-19T12:56:14.611Z,5.93
2023-02-19T12:57:20.420Z,10.48
2023-02-19T12:58:32.531Z,9.68
2023-02-19T12:59:56.475Z,5.30
2023-02-19T13:01:01.122Z,3.22
2023-02-19T13:02:27.302Z,1.73
2023-02-19T13:04:01.716Z,10.75
2023-02-19T13:05:52.782Z,2.60
2023-02-19T13:09:23.053Z,1.17
2023-02-19T13:10:55.532Z,1.80
2023-02-19T13:14:01.730Z,3.00
2023-02-19T13:15:25.887Z,1.95
2023-02-19T13:16:43.132Z,3.10
2023-02-19T13:18:24.977Z,2.35
2023-02-19T13:19:40.311Z,1.25
2023-02-19T13:20:45.389Z,2.75
2023-02-19T13:22:15.702Z,2.63
2023-02-19T13:23:56.988Z,3.50
2023-02-19T13:25:02.493Z,1.30
2023-02-19T13:26:28.861Z,1.85
2023-02-19T13:27:41.313Z,9.95
2023-02-19T13:29:20.617Z,3.17
2023-02-19T13:30:41.189Z,3.60
2023-02-19T13:32:37.724Z,2.88
2023-02-19T13:34:06.143Z,2.50
2023-02-19T13:35:42.861Z,2.95
2023-02-19T13:36:51.256Z,1.88
2023-02-19T13:38:01.686Z,2.55
2023-02-19T13:39:09.074Z,7.68
2023-02-19T13:40:43.268Z,2.40
2023-02-19T13:41:55.777Z,2.30
2023-02-19T13:43:04.000Z,5.07
2023-02-19T13:44:23.347Z,1.58
2023-02-19T13:45:36.191Z,1.40
2023-02-19T13:46:44.879Z,1.15
2023-02-19T13:48:25.511Z,1.20
2023-02-19T13:49:37.383Z,2.78
2023-02-19T13:50:42.383Z,1.95
2023-02-19T13:51:52.277Z,1.58
2023-02-19T13:53:01.010Z,2.08
2023-02-19T13:54:15.432Z,1.85
2023-02-19T13:55:44.595Z,2.35
2023-02-19T13:57:13.040Z,1.95
2023-02-19T13:58:57.429Z,5.70
2023-02-19T14:00:00.990Z,1.98
2023-02-19T14:01:08.112Z,3.22
2023-02-19T14:02:15.471Z,1.27
2023-02-19T14:03:35.565Z,1.15
2023-02-19T14:04:52.119Z,1.60
2023-02-19T14:06:04.060Z,1.27
2023-02-19T14:07:07.444Z,1.25
2023-02-19T14:08:12.252Z,1.50
2023-02-19T14:11:14.474Z,1.52
2023-02-19T14:12:42.940Z,1.13
2023-02-19T14:14:35.360Z,1.48
2023-02-19T14:15:52.900Z,1.55
2023-02-19T14:20:49.488Z,0.98
2023-02-19T14:24:18.283Z,1.02
2023-02-19T14:25:35.425Z,1.40
2023-02-19T14:26:51.956Z,2.45
2023-02-19T14:29:31.474Z,4.30
2023-02-19T14:32:54.575Z,1.60
2023-02-19T14:35:00.945Z,1.60
2023-02-19T14:36:45.357Z,1.20
2023-02-19T14:39:01.346Z,1.85
2023-02-19T14:40:19.443Z,1.88
2023-02-19T14:41:53.184Z,2.90
2023-02-19T14:43:02.910Z,1.70
2023-02-19T14:44:29.882Z,1.90
2023-02-19T14:45:44.372Z,1.45
2023-02-19T14:47:15.253Z,3.33
2023-02-19T14:48:47.588Z,1.23
2023-02-19T14:50:09.424Z,1.60
2023-02-19T14:51:29.311Z,1.13
2023-02-19T14:53:23.888Z,2.72
2023-02-19T14:55:29.471Z,1.08
2023-02-19T14:57:17.287Z,1.08
2023-02-19T14:59:22.725Z,1.23
2023-02-19T15:00:40.405Z,1.30
2023-02-19T15:02:24.423Z,1.85
2023-02-19T15:03:40.083Z,1.33
2023-02-19T15:07:40.099Z,4.47
2023-02-19T15:08:50.834Z,2.00
2023-02-19T15:10:05.112Z,1.60
2023-02-19T15:11:36.698Z,2.22
2023-02-19T15:12:52.551Z,2.97
2023-02-19T15:14:10.876Z,1.58
2023-02-19T15:15:25.037Z,1.60
2023-02-19T15:16:34.479Z,1.60
2023-02-19T15:17:41.189Z,1.08
2023-02-19T15:18:55.614Z,1.42
2023-02-19T15:20:12.505Z,1.30
2023-02-19T15:21:42.308Z,2.53
2023-02-19T15:22:48.031Z,4.82
2023-02-19T15:24:04.055Z,1.70
2023-02-19T15:25:19.782Z,3.83
2023-02-19T15:26:38.584Z,6.78
2023-02-19T15:27:45.227Z,7.07
2023-02-19T15:29:02.933Z,2.67
2023-02-19T15:30:21.060Z,8.48
2023-02-19T15:31:25.281Z,6.50
2023-02-19T15:32:29.695Z,6.13
2023-02-19T15:33:35.895Z,4.60
2023-02-19T15:34:43.867Z,4.07
2023-02-19T15:35:54.605Z,4.32
2023-02-19T15:38:10.117Z,2.80
2023-02-19T15:39:45.378Z,1.75
2023-02-19T15:40:50.704Z,5.40
2023-02-19T15:42:01.842Z,3.08
2023-02-19T15:43:28.140Z,2.75
2023-02-19T15:44:57.701Z,8.27
2023-02-19T15:46:09.546Z,7.63
2023-02-19T15:47:29.664Z,4.70
2023-02-19T15:51:11.378Z,5.20
2023-02-19T15:52:55.892Z,6.95
2023-02-19T15:54:14.191Z,2.88
2023-02-19T15:56:12.668Z,4.35
2023-02-19T15:57:53.254Z,2.72
2023-02-19T15:59:15.817Z,3.10
2023-02-19T16:00:39.201Z,2.58
2023-02-19T16:01:45.506Z,5.45
2023-02-19T16:02:49.674Z,8.80
2023-02-19T16:04:20.713Z,10.25
2023-02-19T16:05:30.324Z,10.57
2023-02-19T16:06:58.213Z,7.43
2023-02-19T16:08:20.130Z,9.20
2023-02-19T16:09:39.248Z,7.75
2023-02-19T16:10:54.622Z,8.60
2023-02-19T16:12:01.658Z,10.23
2023-02-19T16:13:08.883Z,9.50
2023-02-19T16:14:33.921Z,9.27
2023-02-19T16:15:40.374Z,10.80
2023-02-19T16:16:57.452Z,11.90